sensor_id;sensor_type;location;lat;lon;timestamp;P1;durP1;ratioP1;P2;durP2;ratioP2
20034;SDS011;10178;48.034;9.800;2023-06-22T00:02:15;6.32;;;3.63;;
20034;SDS011;10178;48.034;9.800;2023-06-22T00:04:41;7.82;;;3.28;;
20034;SDS011;10178;48.034;9.800;2023-06-22T00:07:07;9.30;;;3.95;;
20034;SDS011;10178;48.034;9.800;2023-06-22T00:09:33;6.85;;;3.53;;
20034;SDS011;10178;48.034;9.800;2023-06-22T00:11:59;5.75;;;3.55;;
20034;SDS011;10178;48.034;9.800;2023-06-22T00:14:25;7.03;;;3.50;;
20034;SDS011;10178;48.034;9.800;2023-06-22T00:16:50;9.50;;;3.47;;
20034;SDS011;10178;48.034;9.800;2023-06-22T00:19:20;6.90;;;3.85;;
20034;SDS011;10178;48.034;9.800;2023-06-22T00:21:46;9.80;;;3.75;;
20034;SDS011;10178;48.034;9.800;2023-06-22T00:24:12;6.38;;;3.63;;
20034;SDS011;10178;48.034;9.800;2023-06-22T00:26:38;5.93;;;3.60;;
20034;SDS011;10178;48.034;9.800;2023-06-22T00:29:04;8.57;;;3.83;;
20034;SDS011;10178;48.034;9.800;2023-06-22T00:34:00;8.52;;;3.70;;
20034;SDS011;10178;48.034;9.800;2023-06-22T00:36:26;15.77;;;5.95;;
20034;SDS011;10178;48.034;9.800;2023-06-22T00:38:51;7.70;;;3.78;;
20034;SDS011;10178;48.034;9.800;2023-06-22T00:41:17;6.28;;;3.75;;
20034;SDS011;10178;48.034;9.800;2023-06-22T00:43:43;7.65;;;3.72;;
20034;SDS011;10178;48.034;9.800;2023-06-22T00:46:10;5.40;;;3.40;;
20034;SDS011;10178;48.034;9.800;2023-06-22T00:48:36;6.50;;;3.53;;
20034;SDS011;10178;48.034;9.800;2023-06-22T00:51:02;7.32;;;3.55;;
20034;SDS011;10178;48.034;9.800;2023-06-22T00:53:28;9.07;;;4.80;;
20034;SDS011;10178;48.034;9.800;2023-06-22T00:55:54;9.45;;;4.00;;
20034;SDS011;10178;48.034;9.800;2023-06-22T00:58:21;9.10;;;3.47;;
20034;SDS011;10178;48.034;9.800;2023-06-22T01:00:47;4.63;;;3.50;;
20034;SDS011;10178;48.034;9.800;2023-06-22T01:03:13;8.27;;;4.55;;
20034;SDS011;10178;48.034;9.800;2023-06-22T01:05:39;7.95;;;3.63;;
20034;SDS011;10178;48.034;9.800;2023-06-22T01:13:18;14.82;;;6.63;;
20034;SDS011;10178;48.034;9.800;2023-06-22T01:18:30;9.07;;;4.50;;
20034;SDS011;10178;48.034;9.800;2023-06-22T01:20:58;5.50;;;3.72;;
20034;SDS011;10178;48.034;9.800;2023-06-22T01:29:14;7.95;;;3.40;;
20034;SDS011;10178;48.034;9.800;2023-06-22T01:31:42;6.75;;;3.30;;
20034;SDS011;10178;48.034;9.800;2023-06-22T01:34:09;5.07;;;3.17;;
20034;SDS011;10178;48.034;9.800;2023-06-22T01:36:38;8.15;;;3.40;;
20034;SDS011;10178;48.034;9.800;2023-06-22T01:39:04;7.35;;;3.75;;
20034;SDS011;10178;48.034;9.800;2023-06-22T01:41:33;5.32;;;3.55;;
20034;SDS011;10178;48.034;9.800;2023-06-22T01:44:00;6.13;;;3.85;;
20034;SDS011;10178;48.034;9.800;2023-06-22T01:46:27;8.50;;;3.95;;
20034;SDS011;10178;48.034;9.800;2023-06-22T01:48:54;7.97;;;3.67;;
20034;SDS011;10178;48.034;9.800;2023-06-22T01:51:20;7.63;;;3.70;;
20034;SDS011;10178;48.034;9.800;2023-06-22T01:53:46;8.38;;;3.45;;
20034;SDS011;10178;48.034;9.800;2023-06-22T01:56:12;5.40;;;3.65;;
20034;SDS011;10178;48.034;9.800;2023-06-22T01:58:44;4.95;;;3.38;;
20034;SDS011;10178;48.034;9.800;2023-06-22T02:01:36;9.02;;;3.90;;
20034;SDS011;10178;48.034;9.800;2023-06-22T02:04:20;7.70;;;3.65;;
20034;SDS011;10178;48.034;9.800;2023-06-22T02:06:51;5.18;;;3.75;;
20034;SDS011;10178;48.034;9.800;2023-06-22T02:09:21;5.82;;;3.80;;
20034;SDS011;10178;48.034;9.800;2023-06-22T02:11:48;7.63;;;3.40;;
20034;SDS011;10178;48.034;9.800;2023-06-22T02:14:19;8.05;;;3.63;;
20034;SDS011;10178;48.034;9.800;2023-06-22T02:16:46;4.75;;;3.60;;
20034;SDS011;10178;48.034;9.800;2023-06-22T02:19:12;6.55;;;3.40;;
20034;SDS011;10178;48.034;9.800;2023-06-22T02:21:43;7.72;;;3.85;;
20034;SDS011;10178;48.034;9.800;2023-06-22T02:24:09;5.95;;;3.90;;
20034;SDS011;10178;48.034;9.800;2023-06-22T02:26:35;7.35;;;3.67;;
20034;SDS011;10178;48.034;9.800;2023-06-22T02:29:03;7.13;;;3.55;;
20034;SDS011;10178;48.034;9.800;2023-06-22T02:31:28;8.13;;;3.75;;
20034;SDS011;10178;48.034;9.800;2023-06-22T02:33:55;7.20;;;4.00;;
20034;SDS011;10178;48.034;9.800;2023-06-22T02:36:26;7.45;;;3.97;;
20034;SDS011;10178;48.034;9.800;2023-06-22T02:38:52;6.47;;;4.18;;
20034;SDS011;10178;48.034;9.800;2023-06-22T02:41:19;7.40;;;3.80;;
20034;SDS011;10178;48.034;9.800;2023-06-22T02:43:45;9.13;;;4.00;;
20034;SDS011;10178;48.034;9.800;2023-06-22T02:46:11;8.32;;;4.05;;
20034;SDS011;10178;48.034;9.800;2023-06-22T02:48:38;7.60;;;3.97;;
20034;SDS011;10178;48.034;9.800;2023-06-22T02:51:04;6.72;;;3.63;;
20034;SDS011;10178;48.034;9.800;2023-06-22T02:53:30;7.38;;;3.72;;
20034;SDS011;10178;48.034;9.800;2023-06-22T02:55:57;5.20;;;3.55;;
20034;SDS011;10178;48.034;9.800;2023-06-22T02:58:22;7.47;;;3.50;;
20034;SDS011;10178;48.034;9.800;2023-06-22T03:00:49;4.80;;;3.42;;
20034;SDS011;10178;48.034;9.800;2023-06-22T03:03:18;5.93;;;4.10;;
20034;SDS011;10178;48.034;9.800;2023-06-22T03:05:44;4.82;;;3.60;;
20034;SDS011;10178;48.034;9.800;2023-06-22T03:08:10;9.23;;;3.88;;
20034;SDS011;10178;48.034;9.800;2023-06-22T03:10:35;7.43;;;3.92;;
20034;SDS011;10178;48.034;9.800;2023-06-22T03:13:01;6.45;;;3.53;;
20034;SDS011;10178;48.034;9.800;2023-06-22T03:15:27;4.75;;;3.70;;
20034;SDS011;10178;48.034;9.800;2023-06-22T03:17:54;7.13;;;4.10;;
20034;SDS011;10178;48.034;9.800;2023-06-22T03:20:20;7.68;;;3.80;;
20034;SDS011;10178;48.034;9.800;2023-06-22T03:22:46;7.75;;;4.03;;
20034;SDS011;10178;48.034;9.800;2023-06-22T03:25:13;5.65;;;4.10;;
20034;SDS011;10178;48.034;9.800;2023-06-22T03:27:39;5.82;;;3.95;;
20034;SDS011;10178;48.034;9.800;2023-06-22T03:30:07;5.18;;;3.67;;
20034;SDS011;10178;48.034;9.800;2023-06-22T03:32:35;5.28;;;3.95;;
20034;SDS011;10178;48.034;9.800;2023-06-22T03:35:01;9.10;;;3.72;;
20034;SDS011;10178;48.034;9.800;2023-06-22T03:37:27;4.80;;;3.85;;
20034;SDS011;10178;48.034;9.800;2023-06-22T03:39:53;6.93;;;4.18;;
20034;SDS011;10178;48.034;9.800;2023-06-22T03:42:19;9.02;;;3.92;;
20034;SDS011;10178;48.034;9.800;2023-06-22T03:44:44;6.82;;;4.22;;
20034;SDS011;10178;48.034;9.800;2023-06-22T03:47:10;6.78;;;4.50;;
20034;SDS011;10178;48.034;9.800;2023-06-22T03:49:36;12.35;;;5.90;;
20034;SDS011;10178;48.034;9.800;2023-06-22T03:52:02;10.43;;;5.72;;
20034;SDS011;10178;48.034;9.800;2023-06-22T03:54:28;9.65;;;5.28;;
20034;SDS011;10178;48.034;9.800;2023-06-22T03:56:54;7.63;;;5.18;;
20034;SDS011;10178;48.034;9.800;2023-06-22T03:59:21;10.85;;;5.25;;
20034;SDS011;10178;48.034;9.800;2023-06-22T04:01:47;12.43;;;5.20;;
20034;SDS011;10178;48.034;9.800;2023-06-22T04:04:12;9.00;;;4.53;;
20034;SDS011;10178;48.034;9.800;2023-06-22T04:06:38;9.25;;;4.65;;
20034;SDS011;10178;48.034;9.800;2023-06-22T04:09:05;10.07;;;4.95;;
20034;SDS011;10178;48.034;9.800;2023-06-22T04:11:31;7.68;;;4.70;;
20034;SDS011;10178;48.034;9.800;2023-06-22T04:13:56;8.65;;;4.85;;
20034;SDS011;10178;48.034;9.800;2023-06-22T04:16:22;7.88;;;4.68;;
20034;SDS011;10178;48.034;9.800;2023-06-22T04:18:48;7.18;;;4.65;;
20034;SDS011;10178;48.034;9.800;2023-06-22T04:21:13;9.32;;;4.85;;
20034;SDS011;10178;48.034;9.800;2023-06-22T04:23:39;9.63;;;4.65;;
20034;SDS011;10178;48.034;9.800;2023-06-22T04:26:05;6.13;;;5.07;;
20034;SDS011;10178;48.034;9.800;2023-06-22T04:28:30;11.60;;;5.38;;
20034;SDS011;10178;48.034;9.800;2023-06-22T04:31:00;8.60;;;4.22;;
20034;SDS011;10178;48.034;9.800;2023-06-22T04:33:27;7.25;;;4.57;;
20034;SDS011;10178;48.034;9.800;2023-06-22T04:35:54;16.63;;;5.30;;
20034;SDS011;10178;48.034;9.800;2023-06-22T04:38:22;9.32;;;4.88;;
20034;SDS011;10178;48.034;9.800;2023-06-22T04:40:48;10.43;;;4.65;;
20034;SDS011;10178;48.034;9.800;2023-06-22T04:43:13;10.90;;;4.93;;
20034;SDS011;10178;48.034;9.800;2023-06-22T04:45:39;8.75;;;4.90;;
20034;SDS011;10178;48.034;9.800;2023-06-22T04:48:05;11.55;;;5.55;;
20034;SDS011;10178;48.034;9.800;2023-06-22T04:50:31;12.88;;;5.15;;
20034;SDS011;10178;48.034;9.800;2023-06-22T04:52:57;8.10;;;4.57;;
20034;SDS011;10178;48.034;9.800;2023-06-22T04:55:23;10.15;;;4.63;;
20034;SDS011;10178;48.034;9.800;2023-06-22T04:57:50;9.93;;;5.63;;
20034;SDS011;10178;48.034;9.800;2023-06-22T05:02:44;6.05;;;4.75;;
20034;SDS011;10178;48.034;9.800;2023-06-22T05:05:11;9.07;;;5.07;;
20034;SDS011;10178;48.034;9.800;2023-06-22T05:07:45;7.07;;;4.85;;
20034;SDS011;10178;48.034;9.800;2023-06-22T05:10:13;7.32;;;5.28;;
20034;SDS011;10178;48.034;9.800;2023-06-22T05:12:39;9.00;;;6.95;;
20034;SDS011;10178;48.034;9.800;2023-06-22T05:15:06;8.52;;;5.40;;
20034;SDS011;10178;48.034;9.800;2023-06-22T05:17:33;9.98;;;5.43;;
20034;SDS011;10178;48.034;9.800;2023-06-22T05:19:59;10.07;;;5.40;;
20034;SDS011;10178;48.034;9.800;2023-06-22T05:22:25;8.68;;;5.47;;
20034;SDS011;10178;48.034;9.800;2023-06-22T05:24:51;9.68;;;5.28;;
20034;SDS011;10178;48.034;9.800;2023-06-22T05:27:16;6.88;;;4.90;;
20034;SDS011;10178;48.034;9.800;2023-06-22T05:29:42;10.15;;;5.20;;
20034;SDS011;10178;48.034;9.800;2023-06-22T05:32:08;8.35;;;4.97;;
20034;SDS011;10178;48.034;9.800;2023-06-22T05:34:33;7.80;;;5.22;;
20034;SDS011;10178;48.034;9.800;2023-06-22T05:36:59;9.13;;;5.18;;
20034;SDS011;10178;48.034;9.800;2023-06-22T05:39:25;11.35;;;5.70;;
20034;SDS011;10178;48.034;9.800;2023-06-22T05:41:51;8.57;;;5.57;;
20034;SDS011;10178;48.034;9.800;2023-06-22T05:44:17;7.38;;;5.50;;
20034;SDS011;10178;48.034;9.800;2023-06-22T05:46:44;10.73;;;5.93;;
20034;SDS011;10178;48.034;9.800;2023-06-22T05:49:11;10.07;;;5.18;;
20034;SDS011;10178;48.034;9.800;2023-06-22T05:51:37;7.65;;;5.93;;
20034;SDS011;10178;48.034;9.800;2023-06-22T05:54:03;7.30;;;5.07;;
20034;SDS011;10178;48.034;9.800;2023-06-22T05:56:29;8.55;;;5.30;;
20034;SDS011;10178;48.034;9.800;2023-06-22T05:58:55;6.90;;;4.95;;
20034;SDS011;10178;48.034;9.800;2023-06-22T06:01:20;11.02;;;5.78;;
20034;SDS011;10178;48.034;9.800;2023-06-22T06:03:46;9.50;;;5.03;;
20034;SDS011;10178;48.034;9.800;2023-06-22T06:06:12;9.73;;;4.95;;
20034;SDS011;10178;48.034;9.800;2023-06-22T06:08:38;9.38;;;5.10;;
20034;SDS011;10178;48.034;9.800;2023-06-22T06:11:04;8.60;;;5.55;;
20034;SDS011;10178;48.034;9.800;2023-06-22T06:13:30;9.77;;;4.97;;
20034;SDS011;10178;48.034;9.800;2023-06-22T06:15:55;9.10;;;5.97;;
20034;SDS011;10178;48.034;9.800;2023-06-22T06:18:22;6.22;;;4.43;;
20034;SDS011;10178;48.034;9.800;2023-06-22T06:20:48;7.53;;;4.78;;
20034;SDS011;10178;48.034;9.800;2023-06-22T06:23:14;7.97;;;4.88;;
20034;SDS011;10178;48.034;9.800;2023-06-22T06:25:39;6.50;;;4.65;;
20034;SDS011;10178;48.034;9.800;2023-06-22T06:28:05;6.22;;;4.63;;
20034;SDS011;10178;48.034;9.800;2023-06-22T06:30:31;10.65;;;5.55;;
20034;SDS011;10178;48.034;9.800;2023-06-22T06:32:57;9.10;;;4.85;;
20034;SDS011;10178;48.034;9.800;2023-06-22T06:35:23;6.70;;;4.40;;
20034;SDS011;10178;48.034;9.800;2023-06-22T06:37:49;7.68;;;5.28;;
20034;SDS011;10178;48.034;9.800;2023-06-22T06:40:16;9.88;;;4.97;;
20034;SDS011;10178;48.034;9.800;2023-06-22T06:42:43;8.35;;;4.78;;
20034;SDS011;10178;48.034;9.800;2023-06-22T06:45:21;7.25;;;5.05;;
20034;SDS011;10178;48.034;9.800;2023-06-22T06:47:48;10.15;;;5.40;;
20034;SDS011;10178;48.034;9.800;2023-06-22T06:50:18;9.15;;;4.50;;
20034;SDS011;10178;48.034;9.800;2023-06-22T06:52:44;7.88;;;4.53;;
20034;SDS011;10178;48.034;9.800;2023-06-22T06:55:10;10.35;;;5.60;;
20034;SDS011;10178;48.034;9.800;2023-06-22T06:57:37;7.95;;;4.90;;
20034;SDS011;10178;48.034;9.800;2023-06-22T07:00:04;9.40;;;5.10;;
20034;SDS011;10178;48.034;9.800;2023-06-22T07:02:34;9.23;;;4.47;;
20034;SDS011;10178;48.034;9.800;2023-06-22T07:05:00;10.23;;;5.10;;
20034;SDS011;10178;48.034;9.800;2023-06-22T07:07:29;13.05;;;4.70;;
20034;SDS011;10178;48.034;9.800;2023-06-22T07:09:55;7.13;;;4.53;;
20034;SDS011;10178;48.034;9.800;2023-06-22T07:12:20;8.45;;;5.07;;
20034;SDS011;10178;48.034;9.800;2023-06-22T07:14:46;7.97;;;5.03;;
20034;SDS011;10178;48.034;9.800;2023-06-22T07:17:12;6.93;;;5.30;;
20034;SDS011;10178;48.034;9.800;2023-06-22T07:19:37;8.90;;;5.10;;
20034;SDS011;10178;48.034;9.800;2023-06-22T07:22:03;10.68;;;4.65;;
20034;SDS011;10178;48.034;9.800;2023-06-22T07:24:29;8.73;;;4.50;;
20034;SDS011;10178;48.034;9.800;2023-06-22T07:26:55;12.93;;;5.60;;
20034;SDS011;10178;48.034;9.800;2023-06-22T07:29:24;7.43;;;4.63;;
20034;SDS011;10178;48.034;9.800;2023-06-22T07:31:50;8.63;;;5.10;;
20034;SDS011;10178;48.034;9.800;2023-06-22T07:34:21;9.10;;;5.22;;
20034;SDS011;10178;48.034;9.800;2023-06-22T07:36:47;8.70;;;5.13;;
20034;SDS011;10178;48.034;9.800;2023-06-22T07:39:13;7.43;;;5.07;;
20034;SDS011;10178;48.034;9.800;2023-06-22T07:41:39;6.85;;;4.45;;
20034;SDS011;10178;48.034;9.800;2023-06-22T07:44:08;8.65;;;5.40;;
20034;SDS011;10178;48.034;9.800;2023-06-22T07:46:34;7.95;;;4.88;;
20034;SDS011;10178;48.034;9.800;2023-06-22T07:48:59;10.88;;;5.60;;
20034;SDS011;10178;48.034;9.800;2023-06-22T07:51:26;6.88;;;5.03;;
20034;SDS011;10178;48.034;9.800;2023-06-22T07:53:52;14.30;;;4.82;;
20034;SDS011;10178;48.034;9.800;2023-06-22T07:56:17;12.57;;;5.10;;
20034;SDS011;10178;48.034;9.800;2023-06-22T07:58:46;10.90;;;5.45;;
20034;SDS011;10178;48.034;9.800;2023-06-22T08:01:13;9.63;;;4.88;;
20034;SDS011;10178;48.034;9.800;2023-06-22T08:03:39;10.00;;;5.85;;
20034;SDS011;10178;48.034;9.800;2023-06-22T08:06:06;11.38;;;5.32;;
20034;SDS011;10178;48.034;9.800;2023-06-22T08:08:34;14.40;;;7.97;;
20034;SDS011;10178;48.034;9.800;2023-06-22T08:11:00;10.73;;;5.25;;
20034;SDS011;10178;48.034;9.800;2023-06-22T08:13:25;7.57;;;5.35;;
20034;SDS011;10178;48.034;9.800;2023-06-22T08:15:51;13.23;;;6.47;;
20034;SDS011;10178;48.034;9.800;2023-06-22T08:18:16;13.77;;;9.05;;
20034;SDS011;10178;48.034;9.800;2023-06-22T08:20:42;13.63;;;6.85;;
20034;SDS011;10178;48.034;9.800;2023-06-22T08:23:08;7.60;;;5.85;;
20034;SDS011;10178;48.034;9.800;2023-06-22T08:25:34;11.82;;;5.93;;
20034;SDS011;10178;48.034;9.800;2023-06-22T08:28:00;12.25;;;6.07;;
20034;SDS011;10178;48.034;9.800;2023-06-22T08:30:26;8.65;;;5.97;;
20034;SDS011;10178;48.034;9.800;2023-06-22T08:32:52;8.38;;;5.70;;
20034;SDS011;10178;48.034;9.800;2023-06-22T08:35:19;12.05;;;6.50;;
20034;SDS011;10178;48.034;9.800;2023-06-22T08:37:45;14.13;;;6.03;;
20034;SDS011;10178;48.034;9.800;2023-06-22T08:40:17;11.13;;;5.50;;
20034;SDS011;10178;48.034;9.800;2023-06-22T08:42:45;15.65;;;6.38;;
20034;SDS011;10178;48.034;9.800;2023-06-22T08:45:11;10.50;;;5.93;;
20034;SDS011;10178;48.034;9.800;2023-06-22T08:47:37;12.45;;;6.28;;
20034;SDS011;10178;48.034;9.800;2023-06-22T08:50:04;9.88;;;5.53;;
20034;SDS011;10178;48.034;9.800;2023-06-22T08:52:30;13.15;;;5.88;;
20034;SDS011;10178;48.034;9.800;2023-06-22T08:54:56;14.38;;;6.97;;
20034;SDS011;10178;48.034;9.800;2023-06-22T08:57:23;15.63;;;6.00;;
20034;SDS011;10178;48.034;9.800;2023-06-22T08:59:49;14.25;;;8.90;;
20034;SDS011;10178;48.034;9.800;2023-06-22T09:02:17;13.60;;;5.55;;
20034;SDS011;10178;48.034;9.800;2023-06-22T09:04:42;14.38;;;6.53;;
20034;SDS011;10178;48.034;9.800;2023-06-22T09:07:08;11.20;;;6.40;;
20034;SDS011;10178;48.034;9.800;2023-06-22T09:09:34;9.10;;;5.88;;
20034;SDS011;10178;48.034;9.800;2023-06-22T09:11:59;10.48;;;5.78;;
20034;SDS011;10178;48.034;9.800;2023-06-22T09:14:25;12.43;;;6.38;;
20034;SDS011;10178;48.034;9.800;2023-06-22T09:16:51;12.68;;;5.72;;
20034;SDS011;10178;48.034;9.800;2023-06-22T09:19:16;12.35;;;5.80;;
20034;SDS011;10178;48.034;9.800;2023-06-22T09:21:42;13.52;;;5.82;;
20034;SDS011;10178;48.034;9.800;2023-06-22T09:24:08;12.65;;;5.97;;
20034;SDS011;10178;48.034;9.800;2023-06-22T09:26:33;11.65;;;6.18;;
20034;SDS011;10178;48.034;9.800;2023-06-22T09:28:59;11.52;;;6.38;;
20034;SDS011;10178;48.034;9.800;2023-06-22T09:31:25;11.88;;;5.70;;
20034;SDS011;10178;48.034;9.800;2023-06-22T09:33:51;11.18;;;5.95;;
20034;SDS011;10178;48.034;9.800;2023-06-22T09:36:18;9.02;;;5.82;;
20034;SDS011;10178;48.034;9.800;2023-06-22T09:38:43;10.57;;;6.70;;
20034;SDS011;10178;48.034;9.800;2023-06-22T09:41:09;22.95;;;7.18;;
20034;SDS011;10178;48.034;9.800;2023-06-22T09:43:34;8.70;;;5.68;;
20034;SDS011;10178;48.034;9.800;2023-06-22T09:46:01;15.45;;;6.05;;
20034;SDS011;10178;48.034;9.800;2023-06-22T09:48:27;33.40;;;8.60;;
20034;SDS011;10178;48.034;9.800;2023-06-22T09:50:54;17.45;;;6.63;;
20034;SDS011;10178;48.034;9.800;2023-06-22T09:53:20;14.00;;;6.50;;
20034;SDS011;10178;48.034;9.800;2023-06-22T09:55:45;16.08;;;6.10;;
20034;SDS011;10178;48.034;9.800;2023-06-22T09:58:11;21.40;;;7.32;;
20034;SDS011;10178;48.034;9.800;2023-06-22T10:00:37;21.48;;;7.35;;
20034;SDS011;10178;48.034;9.800;2023-06-22T10:03:02;23.63;;;9.63;;
20034;SDS011;10178;48.034;9.800;2023-06-22T10:05:28;22.02;;;8.20;;
20034;SDS011;10178;48.034;9.800;2023-06-22T10:07:54;25.38;;;9.07;;
20034;SDS011;10178;48.034;9.800;2023-06-22T10:10:19;17.90;;;7.93;;
20034;SDS011;10178;48.034;9.800;2023-06-22T10:12:46;12.65;;;6.18;;
20034;SDS011;10178;48.034;9.800;2023-06-22T10:15:13;13.32;;;7.03;;
20034;SDS011;10178;48.034;9.800;2023-06-22T10:17:39;14.30;;;6.93;;
20034;SDS011;10178;48.034;9.800;2023-06-22T10:20:06;14.82;;;6.90;;
20034;SDS011;10178;48.034;9.800;2023-06-22T10:22:38;17.05;;;7.47;;
20034;SDS011;10178;48.034;9.800;2023-06-22T10:25:08;22.35;;;9.27;;
20034;SDS011;10178;48.034;9.800;2023-06-22T10:27:35;20.52;;;9.13;;
20034;SDS011;10178;48.034;9.800;2023-06-22T10:30:00;15.52;;;7.30;;
20034;SDS011;10178;48.034;9.800;2023-06-22T10:32:26;16.60;;;7.15;;
20034;SDS011;10178;48.034;9.800;2023-06-22T10:34:53;14.20;;;6.28;;
20034;SDS011;10178;48.034;9.800;2023-06-22T10:37:19;20.80;;;7.88;;
20034;SDS011;10178;48.034;9.800;2023-06-22T10:39:44;18.77;;;9.85;;
20034;SDS011;10178;48.034;9.800;2023-06-22T10:42:10;13.65;;;6.38;;
20034;SDS011;10178;48.034;9.800;2023-06-22T10:44:36;20.65;;;8.90;;
20034;SDS011;10178;48.034;9.800;2023-06-22T10:47:03;15.00;;;6.95;;
20034;SDS011;10178;48.034;9.800;2023-06-22T10:49:29;20.55;;;7.93;;
20034;SDS011;10178;48.034;9.800;2023-06-22T10:51:55;14.95;;;6.78;;
20034;SDS011;10178;48.034;9.800;2023-06-22T10:54:20;22.75;;;6.72;;
20034;SDS011;10178;48.034;9.800;2023-06-22T10:56:46;13.32;;;6.65;;
20034;SDS011;10178;48.034;9.800;2023-06-22T10:59:12;11.10;;;7.03;;
20034;SDS011;10178;48.034;9.800;2023-06-22T11:01:37;10.45;;;5.82;;
20034;SDS011;10178;48.034;9.800;2023-06-22T11:04:03;20.50;;;8.73;;
20034;SDS011;10178;48.034;9.800;2023-06-22T11:06:29;9.82;;;5.72;;
20034;SDS011;10178;48.034;9.800;2023-06-22T11:08:54;11.55;;;6.28;;
20034;SDS011;10178;48.034;9.800;2023-06-22T11:11:20;15.65;;;6.20;;
20034;SDS011;10178;48.034;9.800;2023-06-22T11:13:46;19.10;;;7.10;;
20034;SDS011;10178;48.034;9.800;2023-06-22T11:16:11;22.80;;;8.43;;
20034;SDS011;10178;48.034;9.800;2023-06-22T11:18:37;9.88;;;6.10;;
20034;SDS011;10178;48.034;9.800;2023-06-22T11:21:03;17.25;;;6.03;;
20034;SDS011;10178;48.034;9.800;2023-06-22T11:23:28;13.77;;;6.22;;
20034;SDS011;10178;48.034;9.800;2023-06-22T11:25:54;24.38;;;7.47;;
20034;SDS011;10178;48.034;9.800;2023-06-22T11:28:20;13.98;;;6.10;;
20034;SDS011;10178;48.034;9.800;2023-06-22T11:30:46;17.23;;;7.20;;
20034;SDS011;10178;48.034;9.800;2023-06-22T11:33:11;19.20;;;7.00;;
20034;SDS011;10178;48.034;9.800;2023-06-22T11:35:37;23.02;;;7.63;;
20034;SDS011;10178;48.034;9.800;2023-06-22T11:38:02;16.42;;;6.30;;
20034;SDS011;10178;48.034;9.800;2023-06-22T11:40:29;11.68;;;6.13;;
20034;SDS011;10178;48.034;9.800;2023-06-22T11:42:55;14.43;;;6.10;;
20034;SDS011;10178;48.034;9.800;2023-06-22T11:45:21;13.90;;;6.35;;
20034;SDS011;10178;48.034;9.800;2023-06-22T11:47:47;10.00;;;5.90;;
20034;SDS011;10178;48.034;9.800;2023-06-22T11:50:12;15.65;;;6.47;;
20034;SDS011;10178;48.034;9.800;2023-06-22T11:52:38;25.17;;;8.40;;
20034;SDS011;10178;48.034;9.800;2023-06-22T11:55:04;18.50;;;7.13;;
20034;SDS011;10178;48.034;9.800;2023-06-22T11:57:35;17.63;;;6.45;;
20034;SDS011;10178;48.034;9.800;2023-06-22T12:00:02;18.15;;;7.00;;
20034;SDS011;10178;48.034;9.800;2023-06-22T12:02:40;15.40;;;6.60;;
20034;SDS011;10178;48.034;9.800;2023-06-22T12:05:06;19.35;;;6.63;;
20034;SDS011;10178;48.034;9.800;2023-06-22T12:07:33;19.90;;;6.85;;
20034;SDS011;10178;48.034;9.800;2023-06-22T12:09:58;17.75;;;6.18;;
20034;SDS011;10178;48.034;9.800;2023-06-22T12:12:24;11.48;;;5.90;;
20034;SDS011;10178;48.034;9.800;2023-06-22T12:14:50;10.73;;;6.65;;
20034;SDS011;10178;48.034;9.800;2023-06-22T12:17:15;16.95;;;6.97;;
20034;SDS011;10178;48.034;9.800;2023-06-22T12:19:41;14.85;;;6.10;;
20034;SDS011;10178;48.034;9.800;2023-06-22T12:22:06;14.65;;;6.32;;
20034;SDS011;10178;48.034;9.800;2023-06-22T12:24:32;18.42;;;6.63;;
20034;SDS011;10178;48.034;9.800;2023-06-22T12:26:57;18.08;;;6.47;;
20034;SDS011;10178;48.034;9.800;2023-06-22T12:29:23;21.15;;;6.45;;
20034;SDS011;10178;48.034;9.800;2023-06-22T12:31:49;15.18;;;6.22;;
20034;SDS011;10178;48.034;9.800;2023-06-22T12:34:14;14.45;;;6.57;;
20034;SDS011;10178;48.034;9.800;2023-06-22T12:36:40;10.48;;;6.00;;
20034;SDS011;10178;48.034;9.800;2023-06-22T12:39:06;16.58;;;5.97;;
20034;SDS011;10178;48.034;9.800;2023-06-22T12:41:31;22.35;;;6.75;;
20034;SDS011;10178;48.034;9.800;2023-06-22T12:43:57;16.92;;;6.35;;
20034;SDS011;10178;48.034;9.800;2023-06-22T12:46:23;17.10;;;6.65;;
20034;SDS011;10178;48.034;9.800;2023-06-22T12:48:48;11.68;;;6.72;;
20034;SDS011;10178;48.034;9.800;2023-06-22T12:51:19;22.25;;;6.38;;
20034;SDS011;10178;48.034;9.800;2023-06-22T12:53:46;17.88;;;6.53;;
20034;SDS011;10178;48.034;9.800;2023-06-22T12:56:12;13.70;;;5.50;;
20034;SDS011;10178;48.034;9.800;2023-06-22T12:58:37;12.82;;;5.93;;
20034;SDS011;10178;48.034;9.800;2023-06-22T13:01:03;10.60;;;5.78;;
20034;SDS011;10178;48.034;9.800;2023-06-22T13:03:29;15.95;;;5.97;;
20034;SDS011;10178;48.034;9.800;2023-06-22T13:05:54;17.92;;;6.63;;
20034;SDS011;10178;48.034;9.800;2023-06-22T13:08:20;16.40;;;6.88;;
20034;SDS011;10178;48.034;9.800;2023-06-22T13:10:46;12.32;;;6.03;;
20034;SDS011;10178;48.034;9.800;2023-06-22T13:13:11;17.20;;;7.03;;
20034;SDS011;10178;48.034;9.800;2023-06-22T13:15:37;11.60;;;5.75;;
20034;SDS011;10178;48.034;9.800;2023-06-22T13:18:02;19.98;;;6.32;;
20034;SDS011;10178;48.034;9.800;2023-06-22T13:20:28;19.17;;;6.78;;
20034;SDS011;10178;48.034;9.800;2023-06-22T13:22:54;14.45;;;5.63;;
20034;SDS011;10178;48.034;9.800;2023-06-22T13:25:21;10.98;;;5.82;;
20034;SDS011;10178;48.034;9.800;2023-06-22T13:27:48;13.73;;;6.43;;
20034;SDS011;10178;48.034;9.800;2023-06-22T13:30:14;17.40;;;7.10;;
20034;SDS011;10178;48.034;9.800;2023-06-22T13:32:41;11.77;;;5.55;;
20034;SDS011;10178;48.034;9.800;2023-06-22T13:35:07;16.73;;;6.55;;
20034;SDS011;10178;48.034;9.800;2023-06-22T13:37:36;20.65;;;6.68;;
20034;SDS011;10178;48.034;9.800;2023-06-22T13:40:02;14.82;;;7.28;;
20034;SDS011;10178;48.034;9.800;2023-06-22T13:42:30;18.98;;;7.43;;
20034;SDS011;10178;48.034;9.800;2023-06-22T13:44:56;19.25;;;8.38;;
20034;SDS011;10178;48.034;9.800;2023-06-22T13:47:21;22.02;;;8.32;;
20034;SDS011;10178;48.034;9.800;2023-06-22T13:49:47;14.05;;;7.43;;
20034;SDS011;10178;48.034;9.800;2023-06-22T13:52:12;19.42;;;6.65;;
20034;SDS011;10178;48.034;9.800;2023-06-22T13:54:38;18.88;;;7.72;;
20034;SDS011;10178;48.034;9.800;2023-06-22T13:57:04;22.63;;;8.40;;
20034;SDS011;10178;48.034;9.800;2023-06-22T13:59:30;22.10;;;8.75;;
20034;SDS011;10178;48.034;9.800;2023-06-22T14:01:55;19.20;;;8.13;;
20034;SDS011;10178;48.034;9.800;2023-06-22T14:04:23;15.70;;;7.32;;
20034;SDS011;10178;48.034;9.800;2023-06-22T14:06:48;19.30;;;9.02;;
20034;SDS011;10178;48.034;9.800;2023-06-22T14:09:14;20.02;;;9.35;;
20034;SDS011;10178;48.034;9.800;2023-06-22T14:11:40;15.50;;;8.25;;
20034;SDS011;10178;48.034;9.800;2023-06-22T14:14:05;18.80;;;8.23;;
20034;SDS011;10178;48.034;9.800;2023-06-22T14:16:31;16.45;;;7.55;;
20034;SDS011;10178;48.034;9.800;2023-06-22T14:18:56;21.95;;;7.85;;
20034;SDS011;10178;48.034;9.800;2023-06-22T14:21:22;20.05;;;7.13;;
20034;SDS011;10178;48.034;9.800;2023-06-22T14:23:48;19.90;;;8.18;;
20034;SDS011;10178;48.034;9.800;2023-06-22T14:26:17;21.73;;;7.93;;
20034;SDS011;10178;48.034;9.800;2023-06-22T14:28:44;18.00;;;8.57;;
20034;SDS011;10178;48.034;9.800;2023-06-22T14:31:15;25.98;;;8.30;;
20034;SDS011;10178;48.034;9.800;2023-06-22T14:33:44;20.70;;;7.47;;
20034;SDS011;10178;48.034;9.800;2023-06-22T14:36:13;17.20;;;8.77;;
20034;SDS011;10178;48.034;9.800;2023-06-22T14:38:40;21.38;;;8.00;;
20034;SDS011;10178;48.034;9.800;2023-06-22T14:41:05;17.38;;;7.30;;
20034;SDS011;10178;48.034;9.800;2023-06-22T14:43:31;16.15;;;7.40;;
20034;SDS011;10178;48.034;9.800;2023-06-22T14:45:57;14.30;;;7.03;;
20034;SDS011;10178;48.034;9.800;2023-06-22T14:48:22;16.65;;;7.30;;
20034;SDS011;10178;48.034;9.800;2023-06-22T14:50:48;13.88;;;6.78;;
20034;SDS011;10178;48.034;9.800;2023-06-22T14:53:14;22.33;;;7.68;;
20034;SDS011;10178;48.034;9.800;2023-06-22T14:55:40;16.98;;;7.05;;